createdAt,value
2019-02-14T00:00:59.091Z,101086.21
2019-02-14T00:03:29.760Z,101094.28
2019-02-14T00:06:00.301Z,101084.66
2019-02-14T00:08:30.900Z,101084.66
2019-02-14T00:11:01.519Z,101083.58
2019-02-14T00:13:32.017Z,101089.30
2019-02-14T00:16:02.617Z,101083.64
2019-02-14T00:18:33.111Z,101090.76
2019-02-14T00:21:03.531Z,101097.42
2019-02-14T00:23:34.016Z,101093.30
2019-02-14T00:26:05.391Z,101098.63
2019-02-14T00:28:35.819Z,101097.34
2019-02-14T00:31:06.351Z,101097.56
2019-02-14T00:33:37.231Z,101105.27
2019-02-14T00:36:07.870Z,101103.92
2019-02-14T00:38:38.352Z,101104.66
2019-02-14T00:41:08.925Z,101105.88
2019-02-14T00:43:39.601Z,101114.35
2019-02-14T00:46:10.153Z,101116.50
2019-02-14T00:48:40.621Z,101113.16
2019-02-14T00:51:11.120Z,101109.79
2019-02-14T00:53:41.581Z,101103.86
2019-02-14T00:56:12.194Z,101107.72
2019-02-14T00:58:42.643Z,101106.59
2019-02-14T01:01:13.228Z,101105.14
2019-02-14T01:03:43.714Z,101107.72
2019-02-14T01:06:14.462Z,101109.00
2019-02-14T01:08:45.042Z,101105.14
2019-02-14T01:11:15.722Z,101102.80
2019-02-14T01:13:46.338Z,101101.93
2019-02-14T01:16:16.831Z,101107.28
2019-02-14T01:18:47.391Z,101101.03
2019-02-14T01:21:18.042Z,101092.63
2019-02-14T01:23:48.391Z,101088.19
2019-02-14T01:26:18.936Z,101080.48
2019-02-14T01:28:49.480Z,101083.30
2019-02-14T01:31:20.050Z,101082.23
2019-02-14T01:33:50.513Z,101078.50
2019-02-14T01:36:20.921Z,101083.64
2019-02-14T01:38:51.629Z,101081.46
2019-02-14T01:41:22.171Z,101084.59
2019-02-14T01:43:52.551Z,101087.67
2019-02-14T01:46:23.460Z,101080.86
2019-02-14T01:48:54.471Z,101093.70
2019-02-14T01:51:24.950Z,101093.55
2019-02-14T01:53:55.395Z,101097.77
2019-02-14T01:56:25.790Z,101103.27
2019-02-14T01:58:56.121Z,101104.50
2019-02-14T02:01:26.839Z,101103.42
2019-02-14T02:03:57.261Z,101105.05
2019-02-14T02:06:27.770Z,101107.63
2019-02-14T02:08:58.710Z,101103.77
2019-02-14T02:11:29.193Z,101102.30
2019-02-14T02:14:00.509Z,101110.02
2019-02-14T02:16:30.871Z,101114.33
2019-02-14T02:19:01.271Z,101110.48
2019-02-14T02:21:31.631Z,101103.14
2019-02-14T02:24:02.119Z,101106.08
2019-02-14T02:26:32.561Z,101106.94
2019-02-14T02:29:02.991Z,101103.70
2019-02-14T02:31:33.380Z,101115.77
2019-02-14T02:34:03.749Z,101117.17
2019-02-14T02:36:34.310Z,101130.11
2019-02-14T02:39:05.970Z,101128.31
2019-02-14T02:41:36.471Z,101133.39
2019-02-14T02:44:08.933Z,101132.63
2019-02-14T02:46:39.570Z,101141.83
2019-02-14T02:49:10.013Z,101135.09
2019-02-14T02:51:40.432Z,101136.90
2019-02-14T02:54:10.980Z,101137.14
2019-02-14T02:56:41.459Z,101132.47
2019-02-14T02:59:11.830Z,101130.17
2019-02-14T03:01:42.789Z,101132.16
2019-02-14T03:04:13.340Z,101133.45
2019-02-14T03:06:43.959Z,101132.89
2019-02-14T03:09:14.460Z,101132.83
2019-02-14T03:11:44.891Z,101140.23
2019-02-14T03:14:15.441Z,101140.08
2019-02-14T03:16:45.943Z,101143.72
2019-02-14T03:19:16.281Z,101139.87
2019-02-14T03:21:46.665Z,101142.80
2019-02-14T03:24:17.222Z,101140.23
2019-02-14T03:26:47.730Z,101137.81
2019-02-14T03:29:18.085Z,101145.37
2019-02-14T03:31:48.485Z,101138.80
2019-02-14T03:34:19.087Z,101142.64
2019-02-14T03:36:49.493Z,101145.67
2019-02-14T03:39:19.960Z,101150.09
2019-02-14T03:41:50.771Z,101144.14
2019-02-14T03:44:21.170Z,101151.79
2019-02-14T03:46:51.579Z,101164.16
2019-02-14T03:49:22.080Z,101164.11
2019-02-14T03:51:52.581Z,101166.68
2019-02-14T03:54:23.041Z,101166.89
2019-02-14T03:56:53.449Z,101168.07
2019-02-14T03:59:23.850Z,101163.82
2019-02-14T04:01:54.260Z,101170.64
2019-02-14T04:04:24.640Z,101173.02
2019-02-14T04:06:55.161Z,101178.20
2019-02-14T04:09:25.706Z,101172.66
2019-02-14T04:11:56.094Z,101171.21
2019-02-14T04:14:26.459Z,101175.43
2019-02-14T04:16:56.900Z,101177.48
2019-02-14T04:19:27.451Z,101170.03
2019-02-14T04:21:57.870Z,101172.39
2019-02-14T04:24:28.311Z,101178.97
2019-02-14T04:26:58.720Z,101178.45
2019-02-14T04:29:29.131Z,101171.63
2019-02-14T04:31:59.579Z,101178.00
2019-02-14T04:34:29.910Z,101170.14
2019-02-14T04:37:00.259Z,101169.98
2019-02-14T04:39:30.640Z,101173.83
2019-02-14T04:42:01.063Z,101168.70
2019-02-14T04:44:31.474Z,101165.50
2019-02-14T04:47:01.890Z,101164.73
2019-02-14T04:49:32.290Z,101168.13
2019-02-14T04:52:03.031Z,101172.91
2019-02-14T04:54:33.849Z,101174.19
2019-02-14T04:57:04.403Z,101169.00
2019-02-14T04:59:34.763Z,101171.05
2019-02-14T05:02:05.225Z,101166.08
2019-02-14T05:04:35.692Z,101167.72
2019-02-14T05:07:06.220Z,101171.97
2019-02-14T05:09:36.640Z,101176.50
2019-02-14T05:12:07.210Z,101176.19
2019-02-14T05:14:37.742Z,101179.48
2019-02-14T05:17:08.547Z,101176.08
2019-02-14T05:19:39.037Z,101179.48
2019-02-14T05:22:09.782Z,101180.56
2019-02-14T05:24:40.292Z,101179.83
2019-02-14T05:27:10.790Z,101182.66
2019-02-14T05:29:41.371Z,101183.58
2019-02-14T05:32:11.956Z,101184.86
2019-02-14T05:34:42.419Z,101182.81
2019-02-14T05:37:12.972Z,101179.17
2019-02-14T05:39:43.675Z,101181.94
2019-02-14T05:42:14.294Z,101186.87
2019-02-14T05:44:44.899Z,101194.25
2019-02-14T05:47:15.730Z,101193.33
2019-02-14T05:49:46.521Z,101192.81
2019-02-14T05:52:17.117Z,101189.53
2019-02-14T05:54:47.591Z,101190.77
2019-02-14T05:57:18.631Z,101185.84
2019-02-14T05:59:49.250Z,101191.53
2019-02-14T06:02:20.040Z,101201.59
2019-02-14T06:04:50.682Z,101208.89
2019-02-14T06:07:21.220Z,101214.80
2019-02-14T06:09:51.771Z,101216.28
2019-02-14T06:12:22.319Z,101217.00
2019-02-14T06:14:52.956Z,101230.72
2019-02-14T06:17:23.641Z,101231.13
2019-02-14T06:19:54.157Z,101228.91
2019-02-14T06:22:25.037Z,101237.34
2019-02-14T06:24:55.855Z,101240.78
2019-02-14T06:27:27.070Z,101244.52
2019-02-14T06:29:57.807Z,101239.19
2019-02-14T06:32:28.480Z,101240.73
2019-02-14T06:34:58.982Z,101251.70
2019-02-14T06:37:29.538Z,101260.84
2019-02-14T06:40:00.290Z,101261.21
2019-02-14T06:42:31.080Z,101258.03
2019-02-14T06:45:01.879Z,101259.84
2019-02-14T06:47:32.630Z,101248.33
2019-02-14T06:50:03.320Z,101266.63
2019-02-14T06:52:34.151Z,101256.95
2019-02-14T06:55:04.885Z,101260.76
2019-02-14T06:57:35.504Z,101277.28
2019-02-14T07:00:07.055Z,101280.95
2019-02-14T07:02:37.711Z,101284.06
2019-02-14T07:05:09.501Z,101281.82
2019-02-14T07:07:41.368Z,101282.38
2019-02-14T07:10:12.368Z,101291.84
2019-02-14T07:12:43.086Z,101289.73
2019-02-14T07:15:14.034Z,101291.33
2019-02-14T07:17:44.605Z,101294.82
2019-02-14T07:20:16.225Z,101293.70
2019-02-14T07:22:46.783Z,101291.09
2019-02-14T07:25:17.371Z,101299.34
2019-02-14T07:27:48.065Z,101301.52
2019-02-14T07:30:20.771Z,101294.01
2019-02-14T07:32:51.500Z,101289.64
2019-02-14T07:35:22.336Z,101292.37
2019-02-14T07:37:53.049Z,101302.88
2019-02-14T07:40:23.860Z,101300.42
2019-02-14T07:42:54.670Z,101291.20
2019-02-14T07:45:25.430Z,101288.27
2019-02-14T07:47:56.060Z,101294.64
2019-02-14T07:50:26.719Z,101291.20
2019-02-14T07:52:57.371Z,101289.83
2019-02-14T07:55:28.320Z,101283.41
2019-02-14T07:57:58.922Z,101283.36
2019-02-14T08:00:29.723Z,101297.01
2019-02-14T08:03:00.442Z,101304.87
2019-02-14T08:05:31.085Z,101307.60
2019-02-14T08:08:02.292Z,101304.63
2019-02-14T08:10:34.961Z,101299.64
2019-02-14T08:13:05.370Z,101301.41
2019-02-14T08:15:36.011Z,101296.97
2019-02-14T08:18:06.744Z,101301.86
2019-02-14T08:20:37.235Z,101305.71
2019-02-14T08:23:08.262Z,101306.70
2019-02-14T08:25:38.851Z,101307.11
2019-02-14T08:28:09.453Z,101314.34
2019-02-14T08:30:40.044Z,101321.66
2019-02-14T08:33:10.626Z,101318.21
2019-02-14T08:35:41.152Z,101317.45
2019-02-14T08:38:11.710Z,101326.70
2019-02-14T08:40:42.303Z,101318.63
2019-02-14T08:43:12.791Z,101311.23
2019-02-14T08:45:43.296Z,101333.30
2019-02-14T08:48:13.711Z,101333.95
2019-02-14T08:50:44.344Z,101344.08
2019-02-14T08:53:15.050Z,101343.72
2019-02-14T08:55:45.680Z,101364.04
2019-02-14T08:58:16.726Z,101372.41
2019-02-14T09:00:47.489Z,101380.02
2019-02-14T09:03:17.966Z,101372.81
2019-02-14T09:05:49.087Z,101367.83
2019-02-14T09:08:19.463Z,101354.30
2019-02-14T09:10:50.078Z,101357.91
2019-02-14T09:13:20.712Z,101357.30
2019-02-14T09:15:51.301Z,101356.73
2019-02-14T09:18:21.862Z,101357.14
2019-02-14T09:20:52.459Z,101356.67
2019-02-14T09:23:23.083Z,101358.53
2019-02-14T09:25:53.660Z,101367.58
2019-02-14T09:28:24.205Z,101374.44
2019-02-14T09:30:54.891Z,101366.72
2019-02-14T09:33:25.341Z,101362.86
2019-02-14T09:35:55.854Z,101356.78
2019-02-14T09:38:26.559Z,101368.15
2019-02-14T09:40:57.001Z,101365.67
2019-02-14T09:43:29.761Z,101356.84
2019-02-14T09:45:59.705Z,101352.01
2019-02-14T09:48:30.200Z,101346.70
2019-02-14T09:51:00.691Z,101328.38
2019-02-14T09:53:31.156Z,101318.02
2019-02-14T09:56:01.674Z,101322.33
2019-02-14T09:58:32.309Z,101319.77
2019-02-14T10:01:02.931Z,101314.40
2019-02-14T10:03:33.330Z,101316.09
2019-02-14T10:06:03.940Z,101309.78
2019-02-14T10:08:34.320Z,101315.84
2019-02-14T10:11:04.841Z,101303.16
2019-02-14T10:13:35.460Z,101301.16
2019-02-14T10:16:06.054Z,101298.59
2019-02-14T10:18:36.347Z,101300.22
2019-02-14T10:21:07.311Z,101296.44
2019-02-14T10:23:38.286Z,101288.78
2019-02-14T10:26:08.870Z,101294.14
2019-02-14T10:28:39.260Z,101296.70
2019-02-14T10:31:09.792Z,101292.41
2019-02-14T10:33:40.343Z,101294.46
2019-02-14T10:36:10.826Z,101289.95
2019-02-14T10:38:41.359Z,101284.90
2019-02-14T10:41:11.686Z,101277.52
2019-02-14T10:43:48.657Z,101279.88
2019-02-14T10:46:14.429Z,101278.56
2019-02-14T10:48:45.430Z,101282.36
2019-02-14T10:51:15.985Z,101285.79
2019-02-14T10:53:46.610Z,101288.09
2019-02-14T10:56:17.245Z,101301.84
2019-02-14T10:58:47.916Z,101303.95
2019-02-14T11:01:18.592Z,101312.81
2019-02-14T11:03:49.288Z,101317.34
2019-02-14T11:06:19.870Z,101315.50
2019-02-14T11:08:50.371Z,101312.66
2019-02-14T11:11:20.944Z,101309.80
2019-02-14T11:13:51.495Z,101306.62
2019-02-14T11:16:22.155Z,101308.42
2019-02-14T11:18:52.779Z,101309.93
2019-02-14T11:21:23.487Z,101318.48
2019-02-14T11:23:53.970Z,101316.39
2019-02-14T11:26:24.910Z,101316.11
2019-02-14T11:28:55.491Z,101326.83
2019-02-14T11:31:26.010Z,101325.58
2019-02-14T11:33:56.480Z,101328.16
2019-02-14T11:36:27.030Z,101333.09
2019-02-14T11:38:57.561Z,101335.14
2019-02-14T11:41:28.010Z,101334.69
2019-02-14T11:43:58.778Z,101331.34
2019-02-14T11:46:29.217Z,101331.44
2019-02-14T11:48:59.649Z,101331.34
2019-02-14T11:51:30.221Z,101327.64
2019-02-14T11:54:00.713Z,101327.39
2019-02-14T11:56:31.226Z,101326.29
2019-02-14T11:59:01.955Z,101330.88
2019-02-14T12:01:32.408Z,101332.07
2019-02-14T12:04:02.956Z,101329.04
2019-02-14T12:06:33.431Z,101332.26
2019-02-14T12:09:05.289Z,101327.27
2019-02-14T12:11:35.800Z,101323.83
2019-02-14T12:14:06.747Z,101325.65
2019-02-14T12:16:37.221Z,101327.15
2019-02-14T12:19:07.611Z,101326.81
2019-02-14T12:21:38.161Z,101323.34
2019-02-14T12:24:08.850Z,101324.33
2019-02-14T12:26:39.360Z,101308.36
2019-02-14T12:29:09.826Z,101314.25
2019-02-14T12:31:40.790Z,101307.77
2019-02-14T12:34:11.370Z,101306.41
2019-02-14T12:36:41.950Z,101304.55
2019-02-14T12:39:12.570Z,101296.91
2019-02-14T12:41:43.070Z,101309.56
2019-02-14T12:44:14.090Z,101311.33
2019-02-14T12:46:45.807Z,101315.81
2019-02-14T12:49:16.425Z,101314.39
2019-02-14T12:51:46.943Z,101311.61
2019-02-14T12:54:17.476Z,101311.11
2019-02-14T12:56:48.049Z,101315.84
2019-02-14T12:59:18.983Z,101308.42
2019-02-14T13:01:49.873Z,101320.47
2019-02-14T13:04:20.470Z,101322.18
2019-02-14T13:06:51.100Z,101326.13
2019-02-14T13:09:21.714Z,101328.01
2019-02-14T13:11:52.603Z,101322.08
2019-02-14T13:14:23.082Z,101327.39
2019-02-14T13:16:53.701Z,101321.26
2019-02-14T13:19:24.317Z,101319.75
2019-02-14T13:21:54.991Z,101330.48
2019-02-14T13:24:25.558Z,101331.27
2019-02-14T13:26:56.141Z,101329.34
2019-02-14T13:29:26.693Z,101323.86
2019-02-14T13:31:57.370Z,101328.45
2019-02-14T13:34:27.904Z,101332.94
2019-02-14T13:37:01.522Z,101326.30
2019-02-14T13:39:32.651Z,101329.48
2019-02-14T13:42:02.812Z,101322.35
2019-02-14T13:44:33.178Z,101307.87
2019-02-14T13:47:03.681Z,101312.35
2019-02-14T13:49:34.221Z,101318.33
2019-02-14T13:52:04.834Z,101308.02
2019-02-14T13:54:35.303Z,101307.28
2019-02-14T13:57:05.861Z,101311.06
2019-02-14T13:59:36.344Z,101304.45
2019-02-14T14:02:06.852Z,101305.14
2019-02-14T14:04:37.626Z,101302.63
2019-02-14T14:07:08.043Z,101299.53
2019-02-14T14:09:39.079Z,101298.95
2019-02-14T14:12:09.578Z,101294.85
2019-02-14T14:14:40.045Z,101298.50
2019-02-14T14:17:10.434Z,101302.79
2019-02-14T14:19:40.781Z,101303.09
2019-02-14T14:22:12.943Z,101289.80
2019-02-14T14:24:43.391Z,101290.91
2019-02-14T14:27:13.839Z,101291.33
2019-02-14T14:29:44.214Z,101292.41
2019-02-14T14:32:14.872Z,101293.45
2019-02-14T14:34:45.505Z,101300.31
2019-02-14T14:37:16.104Z,101301.48
2019-02-14T14:39:48.032Z,101298.07
2019-02-14T14:42:37.728Z,101293.72
2019-02-14T14:45:10.725Z,101293.66
2019-02-14T14:47:41.483Z,101297.00
2019-02-14T14:50:12.169Z,101296.23
2019-02-14T14:52:45.689Z,101303.80
2019-02-14T14:55:16.252Z,101298.28
2019-02-14T14:57:49.016Z,101296.44
2019-02-14T15:00:23.490Z,101302.94
2019-02-14T15:02:54.063Z,101301.99
2019-02-14T15:05:24.704Z,101306.89
2019-02-14T15:07:55.239Z,101302.15
2019-02-14T15:10:28.617Z,101303.19
2019-02-14T15:13:00.679Z,101291.80
2019-02-14T15:15:31.301Z,101289.03
2019-02-14T15:18:04.303Z,101278.74
2019-02-14T15:20:34.986Z,101285.39
2019-02-14T15:23:05.478Z,101283.06
2019-02-14T15:25:37.366Z,101282.02
2019-02-14T15:28:08.015Z,101285.88
2019-02-14T15:30:41.321Z,101278.01
2019-02-14T15:33:18.481Z,101285.39
2019-02-14T15:35:49.162Z,101278.86
2019-02-14T15:38:22.031Z,101280.30
2019-02-14T15:40:59.860Z,101279.93
2019-02-14T15:43:35.992Z,101278.95
2019-02-14T15:46:10.082Z,101278.13
2019-02-14T15:48:43.022Z,101286.92
2019-02-14T15:51:13.559Z,101276.08
2019-02-14T15:53:46.427Z,101275.00
2019-02-14T15:56:18.254Z,101276.08
2019-02-14T15:58:55.341Z,101266.70
2019-02-14T16:01:27.648Z,101270.93
2019-02-14T16:04:02.509Z,101270.06
2019-02-14T16:06:33.647Z,101265.17
2019-02-14T16:09:05.817Z,101262.26
2019-02-14T16:11:38.635Z,101272.23
2019-02-14T16:14:08.593Z,101270.80
2019-02-14T16:16:47.336Z,101265.50
2019-02-14T16:19:25.170Z,101260.57
2019-02-14T16:22:03.856Z,101257.48
2019-02-14T16:24:36.267Z,101263.56
2019-02-14T16:27:08.214Z,101270.76
2019-02-14T16:29:46.840Z,101270.97
2019-02-14T16:32:21.171Z,101273.02
2019-02-14T16:34:52.760Z,101265.67
2019-02-14T16:37:28.006Z,101268.30
2019-02-14T16:39:58.725Z,101269.03
2019-02-14T16:42:34.707Z,101273.13
2019-02-14T16:45:11.067Z,101280.95
2019-02-14T16:47:42.700Z,101277.30
2019-02-14T16:50:13.598Z,101275.70
2019-02-14T16:52:44.187Z,101278.33
2019-02-14T16:55:21.570Z,101276.64
2019-02-14T16:57:52.587Z,101277.03
2019-02-14T17:00:24.473Z,101278.58
2019-02-14T17:02:59.306Z,101269.91
2019-02-14T17:05:31.960Z,101276.69
2019-02-14T17:08:09.072Z,101278.73
2019-02-14T17:10:41.036Z,101285.11
2019-02-14T17:13:14.770Z,101289.17
2019-02-14T17:15:51.042Z,101287.36
2019-02-14T17:18:25.636Z,101277.45
2019-02-14T17:20:58.762Z,101283.51
2019-02-14T17:23:32.582Z,101267.33
2019-02-14T17:26:03.235Z,101273.23
2019-02-14T17:28:39.808Z,101273.95
2019-02-14T17:31:10.746Z,101262.19
2019-02-14T17:33:43.780Z,101252.62
2019-02-14T17:36:14.400Z,101252.67
2019-02-14T17:38:47.339Z,101252.73
2019-02-14T17:41:21.452Z,101259.67
2019-02-14T17:43:51.991Z,101261.16
2019-02-14T17:46:26.691Z,101268.71
2019-02-14T17:49:03.871Z,101275.30
2019-02-14T17:51:35.410Z,101279.91
2019-02-14T17:54:09.332Z,101280.27
2019-02-14T17:56:40.031Z,101277.50
2019-02-14T17:59:16.011Z,101290.03
2019-02-14T18:01:47.652Z,101284.49
2019-02-14T18:04:19.927Z,101288.45
2019-02-14T18:06:58.237Z,101290.34
2019-02-14T18:09:31.918Z,101287.11
2019-02-14T18:12:07.866Z,101291.89
2019-02-14T18:14:42.403Z,101296.10
2019-02-14T18:17:16.551Z,101294.09
2019-02-14T18:19:51.757Z,101301.08
2019-02-14T18:22:22.836Z,101302.93
2019-02-14T18:24:55.580Z,101298.52
2019-02-14T18:27:29.982Z,101297.95
2019-02-14T18:30:02.007Z,101301.30
2019-02-14T18:32:32.472Z,101307.52
2019-02-14T18:35:07.365Z,101309.92
2019-02-14T18:37:39.562Z,101308.48
2019-02-14T18:40:18.727Z,101304.15
2019-02-14T18:42:50.462Z,101302.47
2019-02-14T18:45:26.686Z,101299.48
2019-02-14T18:47:58.355Z,101295.75
2019-02-14T18:50:30.088Z,101296.27
2019-02-14T18:53:03.154Z,101294.14
2019-02-14T18:55:34.213Z,101290.27
2019-02-14T18:58:06.760Z,101292.95
2019-02-14T19:00:41.573Z,101291.67
2019-02-14T19:03:15.721Z,101293.48
2019-02-14T19:05:47.735Z,101287.05
2019-02-14T19:08:18.404Z,101279.70
2019-02-14T19:10:48.951Z,101278.73
2019-02-14T19:13:22.766Z,101280.27
2019-02-14T19:16:02.494Z,101287.56
2019-02-14T19:18:37.729Z,101290.30
2019-02-14T19:21:10.483Z,101283.92
2019-02-14T19:23:46.124Z,101278.98
2019-02-14T19:26:20.467Z,101278.98
2019-02-14T19:28:54.570Z,101280.27
2019-02-14T19:31:32.157Z,101274.00
2019-02-14T19:34:08.173Z,101266.41
2019-02-14T19:36:38.756Z,101271.44
2019-02-14T19:39:14.076Z,101279.81
2019-02-14T19:41:49.033Z,101285.67
2019-02-14T19:44:20.869Z,101285.16
2019-02-14T19:46:56.973Z,101281.92
2019-02-14T19:49:27.964Z,101277.38
2019-02-14T19:52:04.780Z,101274.61
2019-02-14T19:54:38.364Z,101276.88
2019-02-14T19:57:14.922Z,101278.36
2019-02-14T19:59:46.693Z,101276.14
2019-02-14T20:02:21.836Z,101278.51
2019-02-14T20:04:52.592Z,101277.23
2019-02-14T20:07:34.667Z,101284.66
2019-02-14T20:10:09.188Z,101276.96
2019-02-14T20:12:53.998Z,101280.29
2019-02-14T20:15:36.431Z,101274.39
2019-02-14T20:18:03.961Z,101277.13
2019-02-14T20:20:36.667Z,101274.75
2019-02-14T20:23:12.973Z,101275.47
2019-02-14T20:25:45.967Z,101270.02
2019-02-14T20:28:20.352Z,101268.73
2019-02-14T20:30:53.311Z,101263.19
2019-02-14T20:33:25.323Z,101263.76
2019-02-14T20:36:00.689Z,101259.95
2019-02-14T20:38:31.735Z,101268.21
2019-02-14T20:41:07.584Z,101272.22
2019-02-14T20:43:39.403Z,101266.17
2019-02-14T20:46:22.481Z,101263.08
2019-02-14T20:48:54.215Z,101273.67
2019-02-14T20:51:38.257Z,101275.80
2019-02-14T20:54:13.639Z,101271.21
2019-02-14T20:56:48.625Z,101274.14
2019-02-14T20:59:23.900Z,101278.36
2019-02-14T21:01:56.888Z,101282.22
2019-02-14T21:04:43.662Z,101275.68
2019-02-14T21:07:15.404Z,101278.80
2019-02-14T21:09:46.291Z,101271.83
2019-02-14T21:12:18.111Z,101271.09
2019-02-14T21:14:50.710Z,101275.52
2019-02-14T21:17:27.838Z,101273.16
2019-02-14T21:19:58.551Z,101278.84
2019-02-14T21:22:34.106Z,101275.16
2019-02-14T21:25:06.133Z,101274.08
2019-02-14T21:27:41.365Z,101271.55
2019-02-14T21:30:16.657Z,101266.63
2019-02-14T21:32:47.577Z,101267.22
2019-02-14T21:35:20.562Z,101272.88
2019-02-14T21:37:58.400Z,101269.79
2019-02-14T21:40:29.601Z,101259.80
2019-02-14T21:43:01.831Z,101264.77
2019-02-14T21:45:34.367Z,101260.36
2019-02-14T21:48:05.853Z,101266.21
2019-02-14T21:50:42.211Z,101265.45
2019-02-14T21:53:12.994Z,101270.42
2019-02-14T21:55:44.726Z,101268.87
2019-02-14T21:58:15.571Z,101272.52
2019-02-14T22:00:46.430Z,101265.94
2019-02-14T22:03:17.639Z,101259.16
2019-02-14T22:05:50.233Z,101265.42
2019-02-14T22:08:22.693Z,101262.69
2019-02-14T22:10:54.883Z,101269.71
2019-02-14T22:13:28.981Z,101269.52
2019-02-14T22:16:04.822Z,101272.08
2019-02-14T22:18:42.014Z,101267.91
2019-02-14T22:21:18.214Z,101276.05
2019-02-14T22:23:56.762Z,101274.25
2019-02-14T22:26:34.432Z,101273.00
2019-02-14T22:29:10.508Z,101277.81
2019-02-14T22:31:46.893Z,101280.22
2019-02-14T22:34:22.880Z,101285.75
2019-02-14T22:37:00.386Z,101283.95
2019-02-14T22:39:36.621Z,101286.84
2019-02-14T22:42:14.772Z,101287.36
2019-02-14T22:44:50.953Z,101288.13
2019-02-14T22:47:26.977Z,101287.76
2019-02-14T22:50:03.270Z,101281.11
2019-02-14T22:52:40.026Z,101279.10
2019-02-14T22:55:17.372Z,101272.69
2019-02-14T22:57:53.706Z,101279.46
2019-02-14T23:00:49.441Z,101279.50
2019-02-14T23:03:24.717Z,101274.48
2019-02-14T23:05:59.856Z,101276.88
2019-02-14T23:08:35.447Z,101280.93
2019-02-14T23:11:10.711Z,101277.97
2019-02-14T23:13:46.388Z,101282.30
2019-02-14T23:16:20.965Z,101288.36
2019-02-14T23:18:56.176Z,101278.53
2019-02-14T23:21:30.797Z,101287.78
2019-02-14T23:24:05.900Z,101285.28
2019-02-14T23:26:36.793Z,101279.23
2019-02-14T23:29:07.173Z,101287.05
2019-02-14T23:31:37.649Z,101282.05
2019-02-14T23:34:08.392Z,101281.49
2019-02-14T23:36:39.019Z,101279.84
2019-02-14T23:39:09.670Z,101282.94
2019-02-14T23:41:40.180Z,101277.05
2019-02-14T23:44:10.661Z,101281.29
2019-02-14T23:46:41.040Z,101278.16
2019-02-14T23:49:11.532Z,101278.20
2019-02-14T23:51:42.060Z,101279.42
2019-02-14T23:54:12.512Z,101280.12
2019-02-14T23:56:42.831Z,101282.52
2019-02-14T23:59:13.390Z,101275.84
